createdAt,value
2023-01-13T00:05:02.198Z,9.60
2023-01-13T00:10:07.644Z,9.59
2023-01-13T00:15:13.104Z,9.62
2023-01-13T00:20:18.092Z,9.61
2023-01-13T00:25:22.631Z,9.61
2023-01-13T00:30:27.252Z,9.62
2023-01-13T00:35:31.634Z,9.65
2023-01-13T00:40:36.380Z,9.65
2023-01-13T00:45:40.977Z,9.61
2023-01-13T00:50:45.880Z,9.62
2023-01-13T00:55:50.283Z,9.61
2023-01-13T01:00:54.648Z,9.64
2023-01-13T01:06:04.023Z,9.64
2023-01-13T01:11:09.232Z,9.66
2023-01-13T01:16:14.990Z,9.63
2023-01-13T01:21:19.677Z,9.65
2023-01-13T01:26:25.241Z,9.64
2023-01-13T01:31:31.166Z,9.66
2023-01-13T01:36:36.376Z,9.68
2023-01-13T01:42:00.808Z,9.66
2023-01-13T01:47:05.781Z,9.69
2023-01-13T01:52:12.849Z,9.68
2023-01-13T01:57:20.654Z,9.67
2023-01-13T02:02:25.976Z,9.67
2023-01-13T02:07:31.355Z,9.68
2023-01-13T02:12:35.972Z,9.68
2023-01-13T02:17:58.053Z,9.69
2023-01-13T02:23:34.040Z,9.71
2023-01-13T02:29:08.674Z,9.71
2023-01-13T02:34:16.523Z,9.74
2023-01-13T02:39:24.724Z,9.73
2023-01-13T02:44:30.833Z,9.71
2023-01-13T02:49:37.084Z,9.71
2023-01-13T02:54:43.974Z,9.71
2023-01-13T02:59:48.706Z,9.71
2023-01-13T03:04:56.991Z,9.71
2023-01-13T03:10:08.553Z,9.72
2023-01-13T03:15:18.012Z,9.72
2023-01-13T03:20:26.529Z,9.74
2023-01-13T03:25:33.831Z,9.73
2023-01-13T03:30:42.157Z,9.73
2023-01-13T03:35:48.440Z,9.73
2023-01-13T03:40:54.928Z,9.70
2023-01-13T03:46:02.712Z,9.71
2023-01-13T03:51:07.957Z,9.71
2023-01-13T03:56:16.762Z,9.71
2023-01-13T04:01:23.124Z,9.72
2023-01-13T04:06:32.774Z,9.70
2023-01-13T04:11:40.645Z,9.69
2023-01-13T04:16:45.066Z,9.68
2023-01-13T04:21:49.171Z,9.68
2023-01-13T04:26:53.428Z,9.68
2023-01-13T04:31:58.223Z,9.68
2023-01-13T04:37:02.828Z,9.68
2023-01-13T04:42:07.352Z,9.69
2023-01-13T04:47:11.680Z,9.69
2023-01-13T04:52:16.283Z,9.69
2023-01-13T04:57:21.052Z,9.69
2023-01-13T05:02:25.379Z,9.69
2023-01-13T05:07:29.837Z,9.69
2023-01-13T05:12:52.347Z,9.68
2023-01-13T05:17:57.193Z,9.69
2023-01-13T05:23:18.879Z,9.69
2023-01-13T05:28:23.297Z,9.68
2023-01-13T05:33:27.733Z,9.70
2023-01-13T05:38:32.059Z,9.70
2023-01-13T05:43:36.573Z,9.68
2023-01-13T05:48:41.963Z,9.69
2023-01-13T05:53:46.363Z,9.69
2023-01-13T05:58:51.012Z,9.69
2023-01-13T06:03:55.618Z,9.68
2023-01-13T06:09:00.032Z,9.70
2023-01-13T06:14:04.290Z,9.68
2023-01-13T06:19:11.609Z,9.68
2023-01-13T06:24:15.776Z,9.68
2023-01-13T06:29:20.249Z,9.66
2023-01-13T06:34:24.933Z,9.68
2023-01-13T06:39:30.981Z,9.68
2023-01-13T06:44:35.594Z,9.68
2023-01-13T06:49:40.046Z,9.67
2023-01-13T06:54:44.385Z,9.67
2023-01-13T06:59:50.455Z,9.65
2023-01-13T07:04:55.028Z,9.65
2023-01-13T07:09:59.523Z,9.67
2023-01-13T07:15:19.666Z,9.65
2023-01-13T07:20:24.779Z,9.66
2023-01-13T07:25:28.786Z,9.66
2023-01-13T07:30:33.227Z,9.65
2023-01-13T07:35:37.657Z,9.65
2023-01-13T07:40:42.007Z,9.65
2023-01-13T07:45:46.551Z,9.65
2023-01-13T07:50:50.767Z,9.64
2023-01-13T07:55:57.240Z,9.65
2023-01-13T08:01:01.967Z,9.64
2023-01-13T08:06:06.620Z,9.65
2023-01-13T08:11:11.114Z,9.64
2023-01-13T08:16:16.086Z,9.64
2023-01-13T08:21:20.668Z,9.65
2023-01-13T08:26:25.468Z,9.66
2023-01-13T08:31:30.109Z,9.65
2023-01-13T08:36:34.488Z,9.65
2023-01-13T08:41:58.842Z,9.66
2023-01-13T08:47:04.134Z,9.66
2023-01-13T08:52:08.985Z,9.66
2023-01-13T08:57:13.401Z,9.66
2023-01-13T09:02:19.001Z,9.66
2023-01-13T09:07:23.573Z,9.66
2023-01-13T09:12:46.855Z,9.67
2023-01-13T09:17:51.524Z,9.67
2023-01-13T09:22:55.974Z,9.69
2023-01-13T09:28:00.298Z,9.68
2023-01-13T09:33:22.731Z,9.68
2023-01-13T09:38:27.272Z,9.67
2023-01-13T09:43:54.933Z,9.68
2023-01-13T09:48:59.960Z,9.70
2023-01-13T09:54:06.394Z,9.72
2023-01-13T09:59:11.871Z,9.73
2023-01-13T10:04:16.763Z,9.69
2023-01-13T10:09:24.086Z,9.71
2023-01-13T10:14:33.078Z,9.71
2023-01-13T10:19:42.542Z,9.72
2023-01-13T10:25:04.872Z,9.75
2023-01-13T10:30:13.598Z,9.75
2023-01-13T10:35:18.233Z,9.75
2023-01-13T10:40:22.768Z,9.75
2023-01-13T10:45:27.308Z,9.74
2023-01-13T10:50:31.856Z,9.74
2023-01-13T10:55:37.835Z,9.73
2023-01-13T11:00:42.371Z,9.71
2023-01-13T11:05:50.870Z,9.72
2023-01-13T11:10:55.890Z,9.72
2023-01-13T11:16:03.983Z,9.71
2023-01-13T11:21:11.696Z,9.72
2023-01-13T11:26:19.306Z,9.72
2023-01-13T11:31:27.443Z,9.72
2023-01-13T11:36:35.912Z,9.72
2023-01-13T11:41:44.097Z,9.69
2023-01-13T11:46:50.506Z,9.70
2023-01-13T11:51:58.144Z,9.68
2023-01-13T11:57:24.596Z,9.68
2023-01-13T12:02:37.878Z,9.71
2023-01-13T12:07:44.658Z,9.71
2023-01-13T12:12:54.285Z,9.69
2023-01-13T12:18:08.365Z,9.68
2023-01-13T12:23:21.475Z,9.69
2023-01-13T12:28:27.661Z,9.68
2023-01-13T12:33:44.490Z,9.67
2023-01-13T12:38:50.316Z,9.67
2023-01-13T12:44:15.465Z,9.69
2023-01-13T12:49:21.155Z,9.69
2023-01-13T12:54:34.276Z,9.69
2023-01-13T12:59:38.683Z,9.66
2023-01-13T13:04:44.181Z,9.66
2023-01-13T13:09:51.102Z,9.66
2023-01-13T13:15:04.923Z,9.67
2023-01-13T13:20:32.077Z,9.65
2023-01-13T13:25:36.796Z,9.69
2023-01-13T13:30:44.629Z,9.66
2023-01-13T13:35:57.286Z,9.67
2023-01-13T13:41:23.718Z,9.65
2023-01-13T13:46:48.102Z,9.65
2023-01-13T13:51:59.851Z,9.66
2023-01-13T13:57:04.099Z,9.66
2023-01-13T14:02:17.624Z,9.64
2023-01-13T14:07:22.234Z,9.63
2023-01-13T14:12:27.579Z,9.64
2023-01-13T14:17:32.045Z,9.62
2023-01-13T14:22:36.774Z,9.62
2023-01-13T14:27:43.314Z,9.62
2023-01-13T14:32:48.034Z,9.61
2023-01-13T14:38:01.840Z,9.62
2023-01-13T14:43:12.897Z,9.61
2023-01-13T14:48:17.291Z,9.61
2023-01-13T14:53:36.471Z,9.61
2023-01-13T14:58:40.808Z,9.64
2023-01-13T15:03:45.581Z,9.62
2023-01-13T15:08:50.838Z,9.59
2023-01-13T15:13:58.329Z,9.59
2023-01-13T15:19:03.088Z,9.59
2023-01-13T15:24:07.931Z,9.58
2023-01-13T15:29:13.909Z,9.59
2023-01-13T15:34:18.546Z,9.57
2023-01-13T15:39:23.053Z,9.56
2023-01-13T15:44:45.230Z,9.57
2023-01-13T15:49:49.990Z,9.56
2023-01-13T15:54:55.061Z,9.56
2023-01-13T16:00:01.260Z,9.56
2023-01-13T16:05:06.775Z,9.57
2023-01-13T16:10:15.960Z,9.56
2023-01-13T16:15:22.056Z,9.58
2023-01-13T16:20:27.222Z,9.59
2023-01-13T16:25:31.557Z,9.60
2023-01-13T16:30:37.567Z,9.59
2023-01-13T16:35:43.867Z,9.57
2023-01-13T16:41:07.049Z,9.61
2023-01-13T16:46:16.881Z,9.59
2023-01-13T16:51:21.732Z,9.57
2023-01-13T16:56:26.781Z,9.57
2023-01-13T17:01:32.919Z,9.58
2023-01-13T17:06:38.937Z,9.58
2023-01-13T17:11:43.344Z,9.56
2023-01-13T17:16:48.073Z,9.55
2023-01-13T17:21:52.301Z,9.56
2023-01-13T17:26:57.519Z,9.55
2023-01-13T17:32:02.231Z,9.55
2023-01-13T17:37:06.496Z,9.54
2023-01-13T17:42:11.173Z,9.55
2023-01-13T17:47:15.697Z,9.54
2023-01-13T17:52:20.877Z,9.55
2023-01-13T17:57:25.418Z,9.54
2023-01-13T18:02:30.007Z,9.54
2023-01-13T18:07:34.989Z,9.55
2023-01-13T18:12:39.761Z,9.55
2023-01-13T18:17:44.954Z,9.54
2023-01-13T18:23:08.698Z,9.53
2023-01-13T18:28:13.266Z,9.54
2023-01-13T18:33:17.823Z,9.54
2023-01-13T18:38:22.257Z,9.53
2023-01-13T18:43:26.436Z,9.51
2023-01-13T18:48:31.112Z,9.52
2023-01-13T18:53:35.246Z,9.51
2023-01-13T18:58:43.753Z,9.52
2023-01-13T19:03:53.199Z,9.52
2023-01-13T19:08:59.427Z,9.53
2023-01-13T19:14:10.647Z,9.53
2023-01-13T19:19:17.198Z,9.52
2023-01-13T19:24:26.497Z,9.52
2023-01-13T19:29:33.919Z,9.51
2023-01-13T19:34:49.759Z,9.51
2023-01-13T19:40:10.961Z,9.51
2023-01-13T19:45:36.299Z,9.53
2023-01-13T19:50:43.153Z,9.52
2023-01-13T19:55:51.991Z,9.51
2023-01-13T20:00:56.848Z,9.51
2023-01-13T20:06:07.375Z,9.49
2023-01-13T20:11:31.107Z,9.50
2023-01-13T20:16:36.343Z,9.51
2023-01-13T20:21:42.010Z,9.49
2023-01-13T20:26:47.045Z,9.50
2023-01-13T20:31:51.043Z,9.48
2023-01-13T20:36:55.359Z,9.49
2023-01-13T20:42:17.561Z,9.49
2023-01-13T20:47:22.202Z,9.50
2023-01-13T20:52:26.382Z,9.49
2023-01-13T20:57:30.894Z,9.49
2023-01-13T21:02:35.420Z,9.48
2023-01-13T21:07:39.456Z,9.48
2023-01-13T21:13:01.938Z,9.48
2023-01-13T21:18:24.961Z,9.48
2023-01-13T21:23:29.672Z,9.48
2023-01-13T21:28:34.242Z,9.48
2023-01-13T21:33:39.133Z,9.46
2023-01-13T21:38:43.833Z,9.47
2023-01-13T21:44:05.993Z,9.47
2023-01-13T21:49:10.444Z,9.48
2023-01-13T21:54:14.934Z,9.47
2023-01-13T21:59:19.943Z,9.46
2023-01-13T22:04:24.597Z,9.46
2023-01-13T22:09:30.578Z,9.47
2023-01-13T22:14:35.983Z,9.47
2023-01-13T22:19:41.984Z,9.45
2023-01-13T22:24:47.225Z,9.46
2023-01-13T22:29:52.106Z,9.47
2023-01-13T22:34:56.483Z,9.46
2023-01-13T22:40:00.742Z,9.44
2023-01-13T22:45:05.093Z,9.46
2023-01-13T22:50:12.185Z,9.45
2023-01-13T22:55:16.542Z,9.46
2023-01-13T23:00:21.745Z,9.46
2023-01-13T23:05:28.326Z,9.46
2023-01-13T23:10:32.431Z,9.45
2023-01-13T23:15:36.823Z,9.45
2023-01-13T23:20:41.149Z,9.44
2023-01-13T23:25:50.543Z,9.45
2023-01-13T23:30:54.989Z,9.44
2023-01-13T23:35:59.927Z,9.45
2023-01-13T23:41:06.520Z,9.46
2023-01-13T23:46:11.723Z,9.45
2023-01-13T23:51:16.256Z,9.44
2023-01-13T23:56:21.004Z,9.44
